createdAt,value
2018-03-12T00:02:26.615Z,71.35
2018-03-12T00:04:55.474Z,71.38
2018-03-12T00:07:23.892Z,71.78
2018-03-12T00:09:52.266Z,72.09
2018-03-12T00:12:20.828Z,71.70
2018-03-12T00:14:49.384Z,72.01
2018-03-12T00:17:17.923Z,71.61
2018-03-12T00:19:46.418Z,71.51
2018-03-12T00:22:32.393Z,71.48
2018-03-12T00:25:01.153Z,71.45
2018-03-12T00:27:29.521Z,71.31
2018-03-12T00:29:58.043Z,71.06
2018-03-12T00:32:26.453Z,71.25
2018-03-12T00:34:54.812Z,70.99
2018-03-12T00:37:23.288Z,70.99
2018-03-12T00:39:51.880Z,71.51
2018-03-12T00:42:20.273Z,71.78
2018-03-12T00:44:49.562Z,71.64
2018-03-12T00:47:19.367Z,71.30
2018-03-12T00:49:48.544Z,71.14
2018-03-12T00:52:16.938Z,72.00
2018-03-12T00:54:45.328Z,72.36
2018-03-12T00:57:14.615Z,71.94
2018-03-12T00:59:43.018Z,71.94
2018-03-12T01:02:11.863Z,72.63
2018-03-12T01:04:40.177Z,72.19
2018-03-12T01:07:08.488Z,71.64
2018-03-12T01:09:37.339Z,71.32
2018-03-12T01:12:05.632Z,71.99
2018-03-12T01:14:34.740Z,71.91
2018-03-12T01:17:03.107Z,71.84
2018-03-12T01:19:32.219Z,73.78
2018-03-12T01:22:00.555Z,74.84
2018-03-12T01:24:28.929Z,74.51
2018-03-12T01:26:57.257Z,74.34
2018-03-12T01:29:25.589Z,74.14
2018-03-12T01:31:54.037Z,74.14
2018-03-12T01:34:28.128Z,74.10
2018-03-12T01:36:56.499Z,73.29
2018-03-12T01:39:24.831Z,73.62
2018-03-12T01:41:53.179Z,73.92
2018-03-12T01:44:21.566Z,73.63
2018-03-12T01:46:49.897Z,73.14
2018-03-12T01:49:18.993Z,72.93
2018-03-12T01:51:47.630Z,73.36
2018-03-12T01:54:15.996Z,73.20
2018-03-12T01:56:44.345Z,73.02
2018-03-12T01:59:13.484Z,73.25
2018-03-12T02:01:41.833Z,73.08
2018-03-12T02:04:10.155Z,73.60
2018-03-12T02:06:39.260Z,73.59
2018-03-12T02:09:07.604Z,73.59
2018-03-12T02:11:35.934Z,72.54
2018-03-12T02:14:04.492Z,72.32
2018-03-12T02:16:32.824Z,72.96
2018-03-12T02:19:01.909Z,73.30
2018-03-12T02:21:31.033Z,73.33
2018-03-12T02:23:59.355Z,73.73
2018-03-12T02:26:27.677Z,73.81
2018-03-12T02:28:56.043Z,73.05
2018-03-12T02:31:25.126Z,72.99
2018-03-12T02:33:53.455Z,72.80
2018-03-12T02:36:22.051Z,72.23
2018-03-12T02:38:50.394Z,72.13
2018-03-12T02:41:18.746Z,72.16
2018-03-12T02:43:47.108Z,71.58
2018-03-12T02:46:15.456Z,71.57
2018-03-12T02:48:43.801Z,72.14
2018-03-12T02:51:12.176Z,72.47
2018-03-12T02:53:41.276Z,72.47
2018-03-12T02:56:09.688Z,72.46
2018-03-12T02:58:38.112Z,72.54
2018-03-12T03:01:07.222Z,71.83
2018-03-12T03:03:35.589Z,71.99
2018-03-12T03:06:03.977Z,72.35
2018-03-12T03:08:32.302Z,71.86
2018-03-12T03:11:00.642Z,71.96
2018-03-12T03:13:29.764Z,71.80
2018-03-12T03:15:58.080Z,73.02
2018-03-12T03:18:26.416Z,73.67
2018-03-12T03:20:54.865Z,73.35
2018-03-12T03:23:23.191Z,73.09
2018-03-12T03:25:51.489Z,72.06
2018-03-12T03:28:19.843Z,71.91
2018-03-12T03:30:48.143Z,71.81
2018-03-12T03:33:16.482Z,72.59
2018-03-12T03:35:44.881Z,71.87
2018-03-12T03:38:13.216Z,72.58
2018-03-12T03:40:42.333Z,71.95
2018-03-12T03:43:11.830Z,71.51
2018-03-12T03:45:40.148Z,71.16
2018-03-12T03:48:08.489Z,71.86
2018-03-12T03:50:37.617Z,72.25
2018-03-12T03:53:05.963Z,72.40
2018-03-12T03:55:34.309Z,72.54
2018-03-12T03:58:02.714Z,72.62
2018-03-12T04:00:31.060Z,72.07
2018-03-12T04:02:59.401Z,72.47
2018-03-12T04:05:28.054Z,73.09
2018-03-12T04:07:57.164Z,73.47
2018-03-12T04:10:25.488Z,73.29
2018-03-12T04:12:53.843Z,73.37
2018-03-12T04:15:22.234Z,73.62
2018-03-12T04:17:50.565Z,73.88
2018-03-12T04:20:18.891Z,73.81
2018-03-12T04:22:47.196Z,73.06
2018-03-12T04:25:15.521Z,73.02
2018-03-12T04:27:44.100Z,72.81
2018-03-12T04:30:13.182Z,72.55
2018-03-12T04:32:42.270Z,72.12
2018-03-12T04:35:10.597Z,71.91
2018-03-12T04:37:38.926Z,71.60
2018-03-12T04:40:07.234Z,71.97
2018-03-12T04:42:35.602Z,71.59
2018-03-12T04:45:04.677Z,71.59
2018-03-12T04:47:33.043Z,71.72
2018-03-12T04:50:01.497Z,71.31
2018-03-12T04:52:29.838Z,71.80
2018-03-12T04:54:58.931Z,72.53
2018-03-12T04:57:28.018Z,71.98
2018-03-12T04:59:57.090Z,71.93
2018-03-12T05:02:25.426Z,72.42
2018-03-12T05:04:53.778Z,72.60
2018-03-12T05:07:22.888Z,72.56
2018-03-12T05:09:51.241Z,72.72
2018-03-12T05:12:20.023Z,72.71
2018-03-12T05:14:48.336Z,72.26
2018-03-12T05:17:16.664Z,71.98
2018-03-12T05:19:45.025Z,72.42
2018-03-12T05:22:13.344Z,72.56
2018-03-12T05:24:41.706Z,73.82
2018-03-12T05:27:10.103Z,73.93
2018-03-12T05:29:39.189Z,73.77
2018-03-12T05:32:07.511Z,73.46
2018-03-12T05:34:35.926Z,73.11
2018-03-12T05:37:04.269Z,72.56
2018-03-12T05:39:32.597Z,72.58
2018-03-12T05:42:00.932Z,73.08
2018-03-12T05:44:29.267Z,72.94
2018-03-12T05:46:57.569Z,73.13
2018-03-12T05:49:25.926Z,73.09
2018-03-12T05:51:55.023Z,73.49
2018-03-12T05:54:24.194Z,72.72
2018-03-12T05:56:52.699Z,72.97
2018-03-12T05:59:21.054Z,74.09
2018-03-12T06:01:49.368Z,73.40
2018-03-12T06:04:17.796Z,73.94
2018-03-12T06:06:46.134Z,74.18
2018-03-12T06:09:17.120Z,73.92
2018-03-12T06:11:45.491Z,73.74
2018-03-12T06:14:13.848Z,73.65
2018-03-12T06:16:42.196Z,73.06
2018-03-12T06:19:11.462Z,72.58
2018-03-12T06:21:39.788Z,71.91
2018-03-12T06:24:08.120Z,72.04
2018-03-12T06:26:36.457Z,72.13
2018-03-12T06:29:04.810Z,72.98
2018-03-12T06:31:33.919Z,73.00
2018-03-12T06:34:03.049Z,73.12
2018-03-12T06:36:31.420Z,73.70
2018-03-12T06:38:59.722Z,74.09
2018-03-12T06:41:28.461Z,74.25
2018-03-12T06:43:56.801Z,73.61
2018-03-12T06:46:25.132Z,73.61
2018-03-12T06:48:53.525Z,73.58
2018-03-12T06:51:21.834Z,73.32
2018-03-12T06:53:50.140Z,73.35
2018-03-12T06:56:18.463Z,74.06
2018-03-12T06:58:46.762Z,74.26
2018-03-12T07:01:15.085Z,74.05
2018-03-12T07:03:44.625Z,74.27
2018-03-12T07:06:12.960Z,74.19
2018-03-12T07:08:41.260Z,74.25
2018-03-12T07:11:09.606Z,74.06
2018-03-12T07:13:37.918Z,74.01
2018-03-12T07:16:06.262Z,74.45
2018-03-12T07:18:34.603Z,74.11
2018-03-12T07:21:02.953Z,73.82
2018-03-12T07:23:31.306Z,73.80
2018-03-12T07:26:00.522Z,73.70
2018-03-12T07:28:28.872Z,73.47
2018-03-12T07:30:57.197Z,73.27
2018-03-12T07:33:25.561Z,72.79
2018-03-12T07:35:53.865Z,72.76
2018-03-12T07:38:22.203Z,73.17
2018-03-12T07:40:51.349Z,73.43
2018-03-12T07:43:19.683Z,73.29
2018-03-12T07:45:48.363Z,73.40
2018-03-12T07:48:17.060Z,73.20
2018-03-12T07:50:45.374Z,73.21
2018-03-12T07:53:13.688Z,73.63
2018-03-12T07:55:42.024Z,73.75
2018-03-12T07:58:10.341Z,74.83
2018-03-12T08:00:38.692Z,74.52
2018-03-12T08:03:07.033Z,73.71
2018-03-12T08:05:36.150Z,73.20
2018-03-12T08:08:04.493Z,74.03
2018-03-12T08:10:33.990Z,74.98
2018-03-12T08:13:02.308Z,74.58
2018-03-12T08:15:30.630Z,74.35
2018-03-12T08:17:59.444Z,73.84
2018-03-12T08:20:27.781Z,74.25
2018-03-12T08:22:56.099Z,74.45
2018-03-12T08:25:24.462Z,74.50
2018-03-12T08:27:52.785Z,74.41
2018-03-12T08:30:21.108Z,74.51
2018-03-12T08:32:50.147Z,74.57
2018-03-12T08:35:18.500Z,74.13
2018-03-12T08:37:47.613Z,74.08
2018-03-12T08:40:16.715Z,74.64
2018-03-12T08:42:45.827Z,74.86
2018-03-12T08:45:14.157Z,74.95
2018-03-12T08:47:42.504Z,75.43
2018-03-12T08:50:10.845Z,75.15
2018-03-12T08:52:39.953Z,75.25
2018-03-12T08:55:08.496Z,75.44
2018-03-12T08:57:36.901Z,74.63
2018-03-12T09:00:06.005Z,74.43
2018-03-12T09:02:35.161Z,74.00
2018-03-12T09:05:03.516Z,74.42
2018-03-12T09:07:31.855Z,75.10
2018-03-12T09:10:00.973Z,74.49
2018-03-12T09:12:29.282Z,73.91
2018-03-12T09:14:57.611Z,73.70
2018-03-12T09:17:26.285Z,73.14
2018-03-12T09:19:54.621Z,73.55
2018-03-12T09:22:22.936Z,73.00
2018-03-12T09:24:51.370Z,73.14
2018-03-12T09:27:20.397Z,73.21
2018-03-12T09:29:48.738Z,73.03
2018-03-12T09:32:17.069Z,73.49
2018-03-12T09:34:45.410Z,72.71
2018-03-12T09:37:13.756Z,72.60
2018-03-12T09:39:42.242Z,72.54
2018-03-12T09:42:10.579Z,72.76
2018-03-12T09:44:38.889Z,72.80
2018-03-12T09:47:07.220Z,73.13
2018-03-12T09:49:35.561Z,73.04
2018-03-12T09:52:03.874Z,72.78
2018-03-12T09:54:32.232Z,72.57
2018-03-12T09:57:00.563Z,72.42
2018-03-12T09:59:28.912Z,72.36
2018-03-12T10:01:57.308Z,72.37
2018-03-12T10:04:25.884Z,71.66
2018-03-12T10:06:54.228Z,71.41
2018-03-12T10:09:22.607Z,71.06
2018-03-12T10:11:50.922Z,72.13
2018-03-12T10:14:19.301Z,72.27
2018-03-12T10:16:47.638Z,71.57
2018-03-12T10:19:15.941Z,71.37
2018-03-12T10:21:44.314Z,71.74
2018-03-12T10:24:12.713Z,71.93
2018-03-12T10:26:41.046Z,72.33
2018-03-12T10:29:09.394Z,72.51
2018-03-12T10:31:37.749Z,72.22
2018-03-12T10:34:06.174Z,72.10
2018-03-12T10:36:34.559Z,71.78
2018-03-12T10:39:02.913Z,71.85
2018-03-12T10:41:32.008Z,72.03
2018-03-12T10:44:01.100Z,72.87
2018-03-12T10:46:29.777Z,72.63
2018-03-12T10:48:58.099Z,73.24
2018-03-12T10:51:26.437Z,72.13
2018-03-12T10:53:55.001Z,72.59
2018-03-12T10:56:23.327Z,72.52
2018-03-12T10:58:51.655Z,72.69
2018-03-12T11:01:25.429Z,72.89
2018-03-12T11:03:53.748Z,72.60
2018-03-12T11:06:23.723Z,72.79
2018-03-12T11:08:52.493Z,72.71
2018-03-12T11:11:21.578Z,72.67
2018-03-12T11:13:49.907Z,72.63
2018-03-12T11:16:18.276Z,72.77
2018-03-12T11:18:46.576Z,73.36
2018-03-12T11:21:14.899Z,73.15
2018-03-12T11:23:44.012Z,73.60
2018-03-12T11:26:12.338Z,73.77
2018-03-12T11:28:40.662Z,73.35
2018-03-12T11:31:09.060Z,72.94
2018-03-12T11:33:37.376Z,72.64
2018-03-12T11:36:05.708Z,72.16
2018-03-12T11:38:34.054Z,72.13
2018-03-12T11:41:02.410Z,72.21
2018-03-12T11:43:30.759Z,72.08
2018-03-12T11:45:59.168Z,71.72
2018-03-12T11:48:27.494Z,72.12
2018-03-12T11:50:55.818Z,71.43
2018-03-12T11:53:24.353Z,71.56
2018-03-12T11:55:52.661Z,71.68
2018-03-12T11:58:20.979Z,72.04
2018-03-12T12:00:49.334Z,71.99
2018-03-12T12:03:17.657Z,71.95
2018-03-12T12:05:46.010Z,71.90
2018-03-12T12:08:14.341Z,72.07
2018-03-12T12:10:42.656Z,71.97
2018-03-12T12:13:11.007Z,72.35
2018-03-12T12:15:39.523Z,72.37
2018-03-12T12:18:07.856Z,72.36
2018-03-12T12:20:36.186Z,71.96
2018-03-12T12:23:04.547Z,72.14
2018-03-12T12:25:32.878Z,72.25
2018-03-12T12:28:01.216Z,71.88
2018-03-12T12:30:29.589Z,71.80
2018-03-12T12:32:57.927Z,71.95
2018-03-12T12:35:26.243Z,72.03
2018-03-12T12:37:55.219Z,72.36
2018-03-12T12:40:23.555Z,72.33
2018-03-12T12:42:51.901Z,72.34
2018-03-12T12:45:20.265Z,72.48
2018-03-12T12:47:48.586Z,72.54
2018-03-12T12:50:17.690Z,72.88
2018-03-12T12:52:46.031Z,73.37
2018-03-12T12:55:14.375Z,72.72
2018-03-12T12:57:42.704Z,72.63
2018-03-12T13:00:12.001Z,72.33
2018-03-12T13:02:40.332Z,72.08
2018-03-12T13:05:08.647Z,72.27
2018-03-12T13:07:37.004Z,72.46
2018-03-12T13:10:05.412Z,72.67
2018-03-12T13:12:33.740Z,72.72
2018-03-12T13:15:02.132Z,73.08
2018-03-12T13:17:30.439Z,72.26
2018-03-12T13:19:58.756Z,71.92
2018-03-12T13:22:27.188Z,72.00
2018-03-12T13:24:55.572Z,72.07
2018-03-12T13:27:23.892Z,71.69
2018-03-12T13:29:53.033Z,71.93
2018-03-12T13:32:21.421Z,71.62
2018-03-12T13:34:49.737Z,72.48
2018-03-12T13:37:18.839Z,72.77
2018-03-12T13:39:47.938Z,72.75
2018-03-12T13:42:16.285Z,73.81
2018-03-12T13:44:44.836Z,73.81
2018-03-12T13:47:13.138Z,73.71
2018-03-12T13:49:41.452Z,73.76
2018-03-12T13:52:10.927Z,74.50
2018-03-12T13:54:39.235Z,74.59
2018-03-12T13:57:08.319Z,74.59
2018-03-12T13:59:37.575Z,75.65
2018-03-12T14:02:07.186Z,76.01
2018-03-12T14:04:35.538Z,75.89
2018-03-12T14:07:03.957Z,76.65
2018-03-12T14:09:32.341Z,76.41
2018-03-12T14:12:00.684Z,76.48
2018-03-12T14:14:29.049Z,76.38
2018-03-12T14:16:57.384Z,75.34
2018-03-12T14:19:25.705Z,75.24
2018-03-12T14:21:54.047Z,74.93
2018-03-12T14:24:22.375Z,74.56
2018-03-12T14:26:50.692Z,74.12
2018-03-12T14:29:19.349Z,74.08
2018-03-12T14:31:47.726Z,74.40
2018-03-12T14:34:16.019Z,74.08
2018-03-12T14:36:44.351Z,73.77
2018-03-12T14:39:13.429Z,73.65
2018-03-12T14:41:41.776Z,74.38
2018-03-12T14:44:10.195Z,74.31
2018-03-12T14:46:38.564Z,74.02
2018-03-12T14:49:07.667Z,74.33
2018-03-12T14:51:36.865Z,74.71
2018-03-12T14:54:05.177Z,73.87
2018-03-12T14:56:33.484Z,73.50
2018-03-12T14:59:01.827Z,74.12
2018-03-12T15:01:30.162Z,73.67
2018-03-12T15:03:58.493Z,73.23
2018-03-12T15:06:26.834Z,73.33
2018-03-12T15:08:55.931Z,73.01
2018-03-12T15:11:25.032Z,72.66
2018-03-12T15:13:54.219Z,72.97
2018-03-12T15:16:22.541Z,72.97
2018-03-12T15:18:50.881Z,73.16
2018-03-12T15:21:20.040Z,73.57
2018-03-12T15:23:48.350Z,75.00
2018-03-12T15:26:16.673Z,75.33
2018-03-12T15:28:45.031Z,75.42
2018-03-12T15:31:13.382Z,74.72
2018-03-12T15:33:41.686Z,74.62
2018-03-12T15:36:10.109Z,75.33
2018-03-12T15:38:38.441Z,75.20
2018-03-12T15:41:06.756Z,75.76
2018-03-12T15:43:35.100Z,75.53
2018-03-12T15:46:04.203Z,74.93
2018-03-12T15:48:32.543Z,75.45
2018-03-12T15:51:00.888Z,75.15
2018-03-12T15:53:29.220Z,75.22
2018-03-12T15:55:58.310Z,74.97
2018-03-12T15:58:27.489Z,75.24
2018-03-12T16:00:55.808Z,75.59
2018-03-12T16:03:24.117Z,75.89
2018-03-12T16:05:52.458Z,75.46
2018-03-12T16:08:21.610Z,74.96
2018-03-12T16:10:49.970Z,75.30
2018-03-12T16:13:18.313Z,75.03
2018-03-12T16:15:47.422Z,74.87
2018-03-12T16:18:15.791Z,74.69
2018-03-12T16:20:44.381Z,75.47
2018-03-12T16:23:13.835Z,75.33
2018-03-12T16:25:42.258Z,75.48
2018-03-12T16:28:10.638Z,75.70
2018-03-12T16:30:38.978Z,75.54
2018-03-12T16:33:07.328Z,75.54
2018-03-12T16:35:35.676Z,75.67
2018-03-12T16:38:04.004Z,76.16
2018-03-12T16:40:32.347Z,77.00
2018-03-12T16:43:00.803Z,77.31
2018-03-12T16:45:29.141Z,77.22
2018-03-12T16:47:57.488Z,76.77
2018-03-12T16:50:25.838Z,77.18
2018-03-12T16:52:54.985Z,76.89
2018-03-12T16:55:23.280Z,76.50
2018-03-12T16:57:51.712Z,76.16
2018-03-12T17:00:20.078Z,76.01
2018-03-12T17:02:49.229Z,75.85
2018-03-12T17:05:17.995Z,76.20
2018-03-12T17:07:46.333Z,76.83
2018-03-12T17:10:15.420Z,76.99
2018-03-12T17:12:43.779Z,76.55
2018-03-12T17:15:12.132Z,76.75
2018-03-12T17:17:40.455Z,76.60
2018-03-12T17:20:08.842Z,76.26
2018-03-12T17:22:37.923Z,75.87
2018-03-12T17:25:06.292Z,76.08
2018-03-12T17:27:34.943Z,75.87
2018-03-12T17:30:03.297Z,75.60
2018-03-12T17:32:31.725Z,75.73
2018-03-12T17:35:00.077Z,76.44
2018-03-12T17:37:28.410Z,76.91
2018-03-12T17:39:56.749Z,77.15
2018-03-12T17:42:25.127Z,77.02
2018-03-12T17:44:53.493Z,77.37
2018-03-12T17:47:21.845Z,78.03
2018-03-12T17:49:51.238Z,77.84
2018-03-12T17:52:19.545Z,77.85
2018-03-12T17:54:47.875Z,77.86
2018-03-12T17:57:16.241Z,77.58
2018-03-12T17:59:44.583Z,77.00
2018-03-12T18:02:12.957Z,77.42
2018-03-12T18:04:41.335Z,77.36
2018-03-12T18:07:09.661Z,77.06
2018-03-12T18:09:38.017Z,76.41
2018-03-12T18:12:06.757Z,76.98
2018-03-12T18:14:35.924Z,77.05
2018-03-12T18:17:04.293Z,76.29
2018-03-12T18:19:32.641Z,77.02
2018-03-12T18:22:00.968Z,77.00
2018-03-12T18:24:29.294Z,76.92
2018-03-12T18:26:57.639Z,76.74
2018-03-12T18:29:26.049Z,76.71
2018-03-12T18:31:54.375Z,76.28
2018-03-12T18:34:22.932Z,76.99
2018-03-12T18:36:51.276Z,77.10
2018-03-12T18:39:20.455Z,78.19
2018-03-12T18:41:48.902Z,78.61
2018-03-12T18:44:17.235Z,78.28
2018-03-12T18:46:45.574Z,77.63
2018-03-12T18:49:13.926Z,77.15
2018-03-12T18:51:42.266Z,76.88
2018-03-12T18:54:11.351Z,76.44
2018-03-12T18:56:40.613Z,76.73
2018-03-12T18:59:08.953Z,76.32
2018-03-12T19:01:38.026Z,76.62
2018-03-12T19:04:06.387Z,77.41
2018-03-12T19:06:34.717Z,77.07
2018-03-12T19:09:03.027Z,77.71
2018-03-12T19:11:31.550Z,77.60
2018-03-12T19:13:59.857Z,76.98
2018-03-12T19:16:28.215Z,77.27
2018-03-12T19:18:57.369Z,77.53
2018-03-12T19:21:25.699Z,77.06
2018-03-12T19:23:54.094Z,77.02
2018-03-12T19:26:22.486Z,76.94
2018-03-12T19:28:50.858Z,77.15
2018-03-12T19:31:19.185Z,77.56
2018-03-12T19:33:49.285Z,78.03
2018-03-12T19:36:17.612Z,78.06
2018-03-12T19:38:45.958Z,77.52
2018-03-12T19:41:14.380Z,77.79
2018-03-12T19:43:42.718Z,77.92
2018-03-12T19:46:11.224Z,77.36
2018-03-12T19:48:40.366Z,77.66
2018-03-12T19:51:08.692Z,77.79
2018-03-12T19:53:37.784Z,78.10
2018-03-12T19:56:06.176Z,78.06
2018-03-12T19:58:35.273Z,78.74
2018-03-12T20:01:04.409Z,78.87
2018-03-12T20:03:33.058Z,79.09
2018-03-12T20:06:04.097Z,78.92
2018-03-12T20:08:38.424Z,79.10
2018-03-12T20:11:06.770Z,78.72
2018-03-12T20:13:37.734Z,78.49
2018-03-12T20:16:18.023Z,78.46
2018-03-12T20:18:46.361Z,78.72
2018-03-12T20:21:15.453Z,78.82
2018-03-12T20:23:44.027Z,78.89
2018-03-12T20:26:12.426Z,78.87
2018-03-12T20:28:40.704Z,78.38
2018-03-12T20:31:09.103Z,78.43
2018-03-12T20:33:37.422Z,77.99
2018-03-12T20:36:05.744Z,77.93
2018-03-12T20:38:34.116Z,77.56
2018-03-12T20:41:03.204Z,77.08
2018-03-12T20:43:31.536Z,77.70
2018-03-12T20:46:00.093Z,77.85
2018-03-12T20:48:28.409Z,77.87
2018-03-12T20:50:56.730Z,77.90
2018-03-12T20:53:25.898Z,77.65
2018-03-12T20:55:54.277Z,77.97
2018-03-12T20:58:22.605Z,78.42
2018-03-12T21:00:51.253Z,79.09
2018-03-12T21:03:19.597Z,80.11
2018-03-12T21:05:47.941Z,79.65
2018-03-12T21:08:16.647Z,79.55
2018-03-12T21:10:44.973Z,79.46
2018-03-12T21:13:13.286Z,79.35
2018-03-12T21:15:42.378Z,80.03
2018-03-12T21:18:11.441Z,80.11
2018-03-12T21:20:39.748Z,80.45
2018-03-12T21:23:08.097Z,80.14
2018-03-12T21:25:36.433Z,79.86
2018-03-12T21:28:04.763Z,80.62
2018-03-12T21:30:34.074Z,81.41
2018-03-12T21:33:02.394Z,80.77
2018-03-12T21:35:30.705Z,80.69
2018-03-12T21:37:59.312Z,80.60
2018-03-12T21:40:27.630Z,80.58
2018-03-12T21:42:55.999Z,80.68
2018-03-12T21:45:24.353Z,80.37
2018-03-12T21:47:53.442Z,80.70
2018-03-12T21:50:21.866Z,80.83
2018-03-12T21:52:50.338Z,80.32
2018-03-12T21:55:18.685Z,80.66
2018-03-12T21:57:47.046Z,80.79
2018-03-12T22:00:15.413Z,81.11
2018-03-12T22:02:43.755Z,80.39
2018-03-12T22:05:12.094Z,80.00
2018-03-12T22:07:40.543Z,80.05
2018-03-12T22:10:09.131Z,79.84
2018-03-12T22:12:37.585Z,79.75
2018-03-12T22:15:07.278Z,79.58
2018-03-12T22:17:35.804Z,80.76
2018-03-12T22:20:04.197Z,81.35
2018-03-12T22:22:32.576Z,80.43
2018-03-12T22:25:00.948Z,79.61
2018-03-12T22:27:29.272Z,79.00
2018-03-12T22:29:58.379Z,77.87
2018-03-12T22:32:26.700Z,77.80
2018-03-12T22:34:55.068Z,77.77
2018-03-12T22:37:23.501Z,77.70
2018-03-12T22:39:52.602Z,77.46
2018-03-12T22:42:21.729Z,76.75
2018-03-12T22:44:50.898Z,76.76
2018-03-12T22:47:19.985Z,76.54
2018-03-12T22:49:49.105Z,75.98
2018-03-12T22:52:17.793Z,75.53
2018-03-12T22:54:46.158Z,75.83
2018-03-12T22:57:15.243Z,76.37
2018-03-12T22:59:44.467Z,77.75
2018-03-12T23:02:12.808Z,78.40
2018-03-12T23:04:41.158Z,78.71
2018-03-12T23:07:09.504Z,77.78
2018-03-12T23:09:38.148Z,77.05
2018-03-12T23:12:07.253Z,75.75
2018-03-12T23:14:35.603Z,75.06
2018-03-12T23:17:03.959Z,75.35
2018-03-12T23:19:32.289Z,75.20
2018-03-12T23:22:02.460Z,74.92
2018-03-12T23:24:30.813Z,74.38
2018-03-12T23:26:59.489Z,73.98
2018-03-12T23:29:28.526Z,73.77
2018-03-12T23:31:56.873Z,73.67
2018-03-12T23:34:25.187Z,73.94
2018-03-12T23:36:53.523Z,74.09
2018-03-12T23:39:21.867Z,74.54
2018-03-12T23:41:50.213Z,75.26
2018-03-12T23:44:18.620Z,75.75
2018-03-12T23:46:46.948Z,76.63
2018-03-12T23:49:15.289Z,77.16
2018-03-12T23:51:43.618Z,77.77
2018-03-12T23:54:11.932Z,77.46
2018-03-12T23:56:40.241Z,77.36
2018-03-12T23:59:09.341Z,77.60
